Bradley, South Carolina
Current Conditions -  °F | °C
As of 8:56 AM on Monday 24 Nov 2014 (Local Time) from KGRD Reporting Station
Few Clouds Few Clouds  
Wind Chill: 64°   Ceiling: Unl
Heat Index: 64°   Visibility: 10mi
Dew Point: 61°   Wind: 14mph
Humidity: 90%   Direction: 210°SSW
Pressure: 29.83"   Gusts: NA
Location:  34.05°N, 82.24°W
Report Text: KGRD 241356Z AUTO 21012KT 10SM FEW009 18/16 A2983 RMK AO2 SLP096 T01780161
Loading
Personal Weather Stations






























Interactive Weather Map New forecast layout! Learn more

10-Day Weather Forecast

Advertisements
Track Severe Weather on mobile